sensor_id;sensor_type;location;lat;lon;timestamp;temperature;humidity
27413;DHT22;14871;52.702;5.230;2022-12-11T00:01:53;4.90;99.90
27413;DHT22;14871;52.702;5.230;2022-12-11T00:04:19;4.80;99.90
27413;DHT22;14871;52.702;5.230;2022-12-11T00:06:44;5.10;99.90
27413;DHT22;14871;52.702;5.230;2022-12-11T00:09:10;4.90;99.90
27413;DHT22;14871;52.702;5.230;2022-12-11T00:11:36;4.80;99.90
27413;DHT22;14871;52.702;5.230;2022-12-11T00:14:02;4.60;99.90
27413;DHT22;14871;52.702;5.230;2022-12-11T00:16:27;4.70;99.90
27413;DHT22;14871;52.702;5.230;2022-12-11T00:18:54;4.70;99.90
27413;DHT22;14871;52.702;5.230;2022-12-11T00:21:19;4.70;99.90
27413;DHT22;14871;52.702;5.230;2022-12-11T00:23:45;4.80;99.90
27413;DHT22;14871;52.702;5.230;2022-12-11T00:26:14;4.80;99.90
27413;DHT22;14871;52.702;5.230;2022-12-11T00:28:41;4.90;99.90
27413;DHT22;14871;52.702;5.230;2022-12-11T00:31:10;4.80;99.90
27413;DHT22;14871;52.702;5.230;2022-12-11T00:33:37;4.90;99.90
27413;DHT22;14871;52.702;5.230;2022-12-11T00:36:03;4.90;99.90
27413;DHT22;14871;52.702;5.230;2022-12-11T00:38:28;4.90;99.90
27413;DHT22;14871;52.702;5.230;2022-12-11T00:40:58;5.00;99.90
27413;DHT22;14871;52.702;5.230;2022-12-11T00:43:24;5.10;99.90
27413;DHT22;14871;52.702;5.230;2022-12-11T00:45:49;4.90;99.90
27413;DHT22;14871;52.702;5.230;2022-12-11T00:48:15;4.90;99.90
27413;DHT22;14871;52.702;5.230;2022-12-11T00:50:40;5.00;99.90
27413;DHT22;14871;52.702;5.230;2022-12-11T00:53:06;5.00;99.90
27413;DHT22;14871;52.702;5.230;2022-12-11T00:55:36;5.00;99.90
27413;DHT22;14871;52.702;5.230;2022-12-11T00:58:02;5.10;99.90
27413;DHT22;14871;52.702;5.230;2022-12-11T01:00:28;5.20;99.90
27413;DHT22;14871;52.702;5.230;2022-12-11T01:02:54;5.10;99.90
27413;DHT22;14871;52.702;5.230;2022-12-11T01:05:19;5.10;99.90
27413;DHT22;14871;52.702;5.230;2022-12-11T01:07:45;5.10;99.90
27413;DHT22;14871;52.702;5.230;2022-12-11T01:10:14;5.00;99.90
27413;DHT22;14871;52.702;5.230;2022-12-11T01:13:00;5.00;99.90
27413;DHT22;14871;52.702;5.230;2022-12-11T01:15:29;4.90;99.90
27413;DHT22;14871;52.702;5.230;2022-12-11T01:17:55;4.90;99.90
27413;DHT22;14871;52.702;5.230;2022-12-11T01:20:21;4.90;99.90
27413;DHT22;14871;52.702;5.230;2022-12-11T01:22:47;5.10;99.90
27413;DHT22;14871;52.702;5.230;2022-12-11T01:25:13;4.90;99.90
27413;DHT22;14871;52.702;5.230;2022-12-11T01:27:39;5.10;99.90
27413;DHT22;14871;52.702;5.230;2022-12-11T01:30:06;4.90;99.90
27413;DHT22;14871;52.702;5.230;2022-12-11T01:32:33;5.00;99.90
27413;DHT22;14871;52.702;5.230;2022-12-11T01:34:59;4.90;99.90
27413;DHT22;14871;52.702;5.230;2022-12-11T01:37:25;4.90;99.90
27413;DHT22;14871;52.702;5.230;2022-12-11T01:39:51;4.80;99.90
27413;DHT22;14871;52.702;5.230;2022-12-11T01:42:18;4.70;99.90
27413;DHT22;14871;52.702;5.230;2022-12-11T01:47:10;4.70;99.90
27413;DHT22;14871;52.702;5.230;2022-12-11T01:49:36;4.70;99.90
27413;DHT22;14871;52.702;5.230;2022-12-11T01:52:06;4.80;99.90
27413;DHT22;14871;52.702;5.230;2022-12-11T01:54:32;5.10;99.90
27413;DHT22;14871;52.702;5.230;2022-12-11T01:57:03;4.90;99.90
27413;DHT22;14871;52.702;5.230;2022-12-11T01:59:32;4.90;99.90
27413;DHT22;14871;52.702;5.230;2022-12-11T02:02:03;4.90;99.90
27413;DHT22;14871;52.702;5.230;2022-12-11T02:04:31;5.00;99.90
27413;DHT22;14871;52.702;5.230;2022-12-11T02:06:57;5.00;99.90
27413;DHT22;14871;52.702;5.230;2022-12-11T02:09:28;4.90;99.90
27413;DHT22;14871;52.702;5.230;2022-12-11T02:14:55;4.90;99.90
27413;DHT22;14871;52.702;5.230;2022-12-11T02:30:58;4.60;99.90
27413;DHT22;14871;52.702;5.230;2022-12-11T02:34:17;4.80;99.90
27413;DHT22;14871;52.702;5.230;2022-12-11T02:36:20;4.90;99.90
27413;DHT22;14871;52.702;5.230;2022-12-11T02:38:50;4.90;99.90
27413;DHT22;14871;52.702;5.230;2022-12-11T02:41:19;5.00;99.90
27413;DHT22;14871;52.702;5.230;2022-12-11T02:43:47;4.90;99.90
27413;DHT22;14871;52.702;5.230;2022-12-11T02:46:16;4.90;99.90
27413;DHT22;14871;52.702;5.230;2022-12-11T02:48:46;4.90;99.90
27413;DHT22;14871;52.702;5.230;2022-12-11T02:51:15;5.00;99.90
27413;DHT22;14871;52.702;5.230;2022-12-11T02:53:43;5.00;99.90
27413;DHT22;14871;52.702;5.230;2022-12-11T02:56:13;5.00;99.90
27413;DHT22;14871;52.702;5.230;2022-12-11T02:58:47;4.90;99.90
27413;DHT22;14871;52.702;5.230;2022-12-11T03:01:14;5.00;99.90
27413;DHT22;14871;52.702;5.230;2022-12-11T03:03:39;5.00;99.90
27413;DHT22;14871;52.702;5.230;2022-12-11T03:06:05;4.90;99.90
27413;DHT22;14871;52.702;5.230;2022-12-11T03:08:31;5.00;99.90
27413;DHT22;14871;52.702;5.230;2022-12-11T03:10:57;5.10;99.90
27413;DHT22;14871;52.702;5.230;2022-12-11T03:13:22;5.00;99.90
27413;DHT22;14871;52.702;5.230;2022-12-11T03:16:11;5.10;99.90
27413;DHT22;14871;52.702;5.230;2022-12-11T03:18:58;4.90;99.90
27413;DHT22;14871;52.702;5.230;2022-12-11T03:22:13;5.00;99.90
27413;DHT22;14871;52.702;5.230;2022-12-11T03:29:57;5.00;99.90
27413;DHT22;14871;52.702;5.230;2022-12-11T03:32:28;5.10;99.90
27413;DHT22;14871;52.702;5.230;2022-12-11T03:37:36;5.10;99.90
27413;DHT22;14871;52.702;5.230;2022-12-11T03:40:09;5.10;99.90
27413;DHT22;14871;52.702;5.230;2022-12-11T03:42:37;5.00;99.90
27413;DHT22;14871;52.702;5.230;2022-12-11T03:45:04;5.00;99.90
27413;DHT22;14871;52.702;5.230;2022-12-11T03:47:31;5.10;99.90
27413;DHT22;14871;52.702;5.230;2022-12-11T03:49:58;5.00;99.90
27413;DHT22;14871;52.702;5.230;2022-12-11T03:52:27;5.10;99.90
27413;DHT22;14871;52.702;5.230;2022-12-11T03:54:56;5.10;99.90
27413;DHT22;14871;52.702;5.230;2022-12-11T03:57:28;5.10;99.90
27413;DHT22;14871;52.702;5.230;2022-12-11T03:59:54;5.10;99.90
27413;DHT22;14871;52.702;5.230;2022-12-11T04:02:20;5.20;99.90
27413;DHT22;14871;52.702;5.230;2022-12-11T04:04:46;5.20;99.90
27413;DHT22;14871;52.702;5.230;2022-12-11T04:07:11;5.20;99.90
27413;DHT22;14871;52.702;5.230;2022-12-11T04:09:37;5.10;99.90
27413;DHT22;14871;52.702;5.230;2022-12-11T04:12:03;5.10;99.90
27413;DHT22;14871;52.702;5.230;2022-12-11T04:14:28;5.10;99.90
27413;DHT22;14871;52.702;5.230;2022-12-11T04:17:12;5.20;99.90
27413;DHT22;14871;52.702;5.230;2022-12-11T04:19:58;5.20;99.90
27413;DHT22;14871;52.702;5.230;2022-12-11T04:22:42;5.20;99.90
27413;DHT22;14871;52.702;5.230;2022-12-11T04:25:26;5.20;99.90
27413;DHT22;14871;52.702;5.230;2022-12-11T04:27:52;5.10;99.90
27413;DHT22;14871;52.702;5.230;2022-12-11T04:30:22;5.20;99.90
27413;DHT22;14871;52.702;5.230;2022-12-11T04:32:50;5.20;99.90
27413;DHT22;14871;52.702;5.230;2022-12-11T04:35:16;5.40;99.90
27413;DHT22;14871;52.702;5.230;2022-12-11T04:37:42;5.40;99.90
27413;DHT22;14871;52.702;5.230;2022-12-11T04:40:10;5.30;99.90
27413;DHT22;14871;52.702;5.230;2022-12-11T04:42:36;5.30;99.90
27413;DHT22;14871;52.702;5.230;2022-12-11T04:45:02;5.40;99.90
27413;DHT22;14871;52.702;5.230;2022-12-11T04:47:28;5.30;99.90
27413;DHT22;14871;52.702;5.230;2022-12-11T04:49:54;5.40;99.90
27413;DHT22;14871;52.702;5.230;2022-12-11T04:52:19;5.40;99.90
27413;DHT22;14871;52.702;5.230;2022-12-11T04:54:45;5.40;99.90
27413;DHT22;14871;52.702;5.230;2022-12-11T04:57:10;5.40;99.90
27413;DHT22;14871;52.702;5.230;2022-12-11T04:59:36;5.30;99.90
27413;DHT22;14871;52.702;5.230;2022-12-11T05:02:03;5.50;99.90
27413;DHT22;14871;52.702;5.230;2022-12-11T05:04:33;5.40;99.90
27413;DHT22;14871;52.702;5.230;2022-12-11T05:06:59;5.40;99.90
27413;DHT22;14871;52.702;5.230;2022-12-11T05:09:25;5.40;99.90
27413;DHT22;14871;52.702;5.230;2022-12-11T05:11:51;5.30;99.90
27413;DHT22;14871;52.702;5.230;2022-12-11T05:14:17;5.30;99.90
27413;DHT22;14871;52.702;5.230;2022-12-11T05:16:43;5.30;99.90
27413;DHT22;14871;52.702;5.230;2022-12-11T05:19:09;5.20;99.90
27413;DHT22;14871;52.702;5.230;2022-12-11T05:21:35;5.30;99.90
27413;DHT22;14871;52.702;5.230;2022-12-11T05:24:00;5.20;99.90
27413;DHT22;14871;52.702;5.230;2022-12-11T05:26:26;5.40;99.90
27413;DHT22;14871;52.702;5.230;2022-12-11T05:28:53;5.40;99.90
27413;DHT22;14871;52.702;5.230;2022-12-11T05:31:24;5.30;99.90
27413;DHT22;14871;52.702;5.230;2022-12-11T05:33:51;5.40;99.90
27413;DHT22;14871;52.702;5.230;2022-12-11T05:36:26;5.40;99.90
27413;DHT22;14871;52.702;5.230;2022-12-11T05:38:52;5.50;99.90
27413;DHT22;14871;52.702;5.230;2022-12-11T05:41:21;5.40;99.90
27413;DHT22;14871;52.702;5.230;2022-12-11T05:43:47;5.30;99.90
27413;DHT22;14871;52.702;5.230;2022-12-11T05:46:24;5.40;99.90
27413;DHT22;14871;52.702;5.230;2022-12-11T05:48:53;5.50;99.90
27413;DHT22;14871;52.702;5.230;2022-12-11T05:51:20;5.40;99.90
27413;DHT22;14871;52.702;5.230;2022-12-11T05:53:48;5.40;99.90
27413;DHT22;14871;52.702;5.230;2022-12-11T05:56:15;5.20;99.90
27413;DHT22;14871;52.702;5.230;2022-12-11T05:58:43;5.20;99.90
27413;DHT22;14871;52.702;5.230;2022-12-11T06:01:15;5.30;99.90
27413;DHT22;14871;52.702;5.230;2022-12-11T06:03:41;5.20;99.90
27413;DHT22;14871;52.702;5.230;2022-12-11T06:06:07;5.20;99.90
27413;DHT22;14871;52.702;5.230;2022-12-11T06:08:33;5.20;99.90
27413;DHT22;14871;52.702;5.230;2022-12-11T06:10:59;5.20;99.90
27413;DHT22;14871;52.702;5.230;2022-12-11T06:13:25;5.20;99.90
27413;DHT22;14871;52.702;5.230;2022-12-11T06:15:50;5.30;99.90
27413;DHT22;14871;52.702;5.230;2022-12-11T06:18:16;5.40;99.90
27413;DHT22;14871;52.702;5.230;2022-12-11T06:20:42;5.50;99.90
27413;DHT22;14871;52.702;5.230;2022-12-11T06:23:08;5.40;99.90
27413;DHT22;14871;52.702;5.230;2022-12-11T06:25:33;5.30;99.90
27413;DHT22;14871;52.702;5.230;2022-12-11T06:27:59;5.40;99.90
27413;DHT22;14871;52.702;5.230;2022-12-11T06:30:25;5.30;99.90
27413;DHT22;14871;52.702;5.230;2022-12-11T06:32:50;5.40;99.90
27413;DHT22;14871;52.702;5.230;2022-12-11T06:35:16;5.40;99.90
27413;DHT22;14871;52.702;5.230;2022-12-11T06:37:42;5.40;99.90
27413;DHT22;14871;52.702;5.230;2022-12-11T06:40:08;5.30;99.90
27413;DHT22;14871;52.702;5.230;2022-12-11T06:42:35;5.20;99.90
27413;DHT22;14871;52.702;5.230;2022-12-11T06:45:01;5.10;99.90
27413;DHT22;14871;52.702;5.230;2022-12-11T06:47:30;5.20;99.90
27413;DHT22;14871;52.702;5.230;2022-12-11T06:49:56;5.10;99.90
27413;DHT22;14871;52.702;5.230;2022-12-11T06:52:24;5.10;99.90
27413;DHT22;14871;52.702;5.230;2022-12-11T06:54:49;5.10;99.90
27413;DHT22;14871;52.702;5.230;2022-12-11T06:57:16;4.90;99.90
27413;DHT22;14871;52.702;5.230;2022-12-11T06:59:41;5.10;99.90
27413;DHT22;14871;52.702;5.230;2022-12-11T07:02:16;5.10;99.90
27413;DHT22;14871;52.702;5.230;2022-12-11T07:04:42;5.00;99.90
27413;DHT22;14871;52.702;5.230;2022-12-11T07:07:08;5.20;99.90
27413;DHT22;14871;52.702;5.230;2022-12-11T07:09:36;5.10;99.90
27413;DHT22;14871;52.702;5.230;2022-12-11T07:12:02;5.20;99.90
27413;DHT22;14871;52.702;5.230;2022-12-11T07:14:29;5.10;99.90
27413;DHT22;14871;52.702;5.230;2022-12-11T07:16:55;5.10;99.90
27413;DHT22;14871;52.702;5.230;2022-12-11T07:19:21;5.10;99.90
27413;DHT22;14871;52.702;5.230;2022-12-11T07:21:47;4.90;99.90
27413;DHT22;14871;52.702;5.230;2022-12-11T07:24:12;4.90;99.90
27413;DHT22;14871;52.702;5.230;2022-12-11T07:26:38;5.00;99.90
27413;DHT22;14871;52.702;5.230;2022-12-11T07:29:04;5.00;99.90
27413;DHT22;14871;52.702;5.230;2022-12-11T07:31:30;5.10;99.90
27413;DHT22;14871;52.702;5.230;2022-12-11T07:33:57;5.00;99.90
27413;DHT22;14871;52.702;5.230;2022-12-11T07:36:23;5.10;99.90
27413;DHT22;14871;52.702;5.230;2022-12-11T07:38:49;5.20;99.90
27413;DHT22;14871;52.702;5.230;2022-12-11T07:41:15;5.20;99.90
27413;DHT22;14871;52.702;5.230;2022-12-11T07:43:41;5.10;99.90
27413;DHT22;14871;52.702;5.230;2022-12-11T07:46:11;5.20;99.90
27413;DHT22;14871;52.702;5.230;2022-12-11T07:48:39;5.40;99.90
27413;DHT22;14871;52.702;5.230;2022-12-11T07:51:09;5.00;99.90
27413;DHT22;14871;52.702;5.230;2022-12-11T07:53:34;5.00;99.90
27413;DHT22;14871;52.702;5.230;2022-12-11T07:56:00;5.10;99.90
27413;DHT22;14871;52.702;5.230;2022-12-11T07:58:26;5.20;99.90
27413;DHT22;14871;52.702;5.230;2022-12-11T08:00:52;5.10;99.90
27413;DHT22;14871;52.702;5.230;2022-12-11T08:03:17;5.20;99.90
27413;DHT22;14871;52.702;5.230;2022-12-11T08:05:50;5.10;99.90
27413;DHT22;14871;52.702;5.230;2022-12-11T08:08:17;5.10;99.90
27413;DHT22;14871;52.702;5.230;2022-12-11T08:10:43;5.20;99.90
27413;DHT22;14871;52.702;5.230;2022-12-11T08:13:09;5.10;99.90
27413;DHT22;14871;52.702;5.230;2022-12-11T08:15:35;5.20;99.90
27413;DHT22;14871;52.702;5.230;2022-12-11T08:18:01;5.30;99.90
27413;DHT22;14871;52.702;5.230;2022-12-11T08:20:26;5.20;99.90
27413;DHT22;14871;52.702;5.230;2022-12-11T08:22:52;5.30;99.90
27413;DHT22;14871;52.702;5.230;2022-12-11T08:25:18;5.30;99.90
27413;DHT22;14871;52.702;5.230;2022-12-11T08:27:43;5.10;99.90
27413;DHT22;14871;52.702;5.230;2022-12-11T08:30:09;5.10;99.90
27413;DHT22;14871;52.702;5.230;2022-12-11T08:32:35;5.20;99.90
27413;DHT22;14871;52.702;5.230;2022-12-11T08:35:01;5.20;99.90
27413;DHT22;14871;52.702;5.230;2022-12-11T08:37:26;5.10;99.90
27413;DHT22;14871;52.702;5.230;2022-12-11T08:39:52;5.20;99.90
27413;DHT22;14871;52.702;5.230;2022-12-11T08:42:17;5.20;99.90
27413;DHT22;14871;52.702;5.230;2022-12-11T08:44:43;5.00;99.90
27413;DHT22;14871;52.702;5.230;2022-12-11T08:47:08;5.00;99.90
27413;DHT22;14871;52.702;5.230;2022-12-11T08:49:35;5.10;99.90
27413;DHT22;14871;52.702;5.230;2022-12-11T08:52:04;4.90;99.90
27413;DHT22;14871;52.702;5.230;2022-12-11T08:54:30;5.00;99.90
27413;DHT22;14871;52.702;5.230;2022-12-11T08:56:56;5.00;99.90
27413;DHT22;14871;52.702;5.230;2022-12-11T08:59:21;4.90;99.90
27413;DHT22;14871;52.702;5.230;2022-12-11T09:01:47;5.00;99.90
27413;DHT22;14871;52.702;5.230;2022-12-11T09:04:13;5.10;99.90
27413;DHT22;14871;52.702;5.230;2022-12-11T09:06:39;5.20;99.90
27413;DHT22;14871;52.702;5.230;2022-12-11T09:09:05;5.30;99.90
27413;DHT22;14871;52.702;5.230;2022-12-11T09:11:33;5.20;99.90
27413;DHT22;14871;52.702;5.230;2022-12-11T09:13:59;5.30;99.90
27413;DHT22;14871;52.702;5.230;2022-12-11T09:16:26;5.10;99.90
27413;DHT22;14871;52.702;5.230;2022-12-11T09:18:54;5.30;99.90
27413;DHT22;14871;52.702;5.230;2022-12-11T09:21:22;5.10;99.90
27413;DHT22;14871;52.702;5.230;2022-12-11T09:23:51;5.30;99.90
27413;DHT22;14871;52.702;5.230;2022-12-11T09:26:17;5.10;99.90
27413;DHT22;14871;52.702;5.230;2022-12-11T09:28:45;5.00;99.90
27413;DHT22;14871;52.702;5.230;2022-12-11T09:31:13;5.10;99.90
27413;DHT22;14871;52.702;5.230;2022-12-11T09:33:39;5.20;99.90
27413;DHT22;14871;52.702;5.230;2022-12-11T09:36:05;5.20;99.90
27413;DHT22;14871;52.702;5.230;2022-12-11T09:38:32;5.10;99.90
27413;DHT22;14871;52.702;5.230;2022-12-11T09:40:58;4.90;99.90
27413;DHT22;14871;52.702;5.230;2022-12-11T09:43:41;5.10;99.90
27413;DHT22;14871;52.702;5.230;2022-12-11T09:46:12;5.10;99.90
27413;DHT22;14871;52.702;5.230;2022-12-11T09:48:41;5.30;99.90
27413;DHT22;14871;52.702;5.230;2022-12-11T09:51:23;5.30;99.90
27413;DHT22;14871;52.702;5.230;2022-12-11T09:53:51;5.10;99.90
27413;DHT22;14871;52.702;5.230;2022-12-11T09:56:25;5.20;99.90
27413;DHT22;14871;52.702;5.230;2022-12-11T10:04:36;5.40;99.90
27413;DHT22;14871;52.702;5.230;2022-12-11T10:09:46;5.00;99.90
27413;DHT22;14871;52.702;5.230;2022-12-11T10:15:18;5.20;99.90
27413;DHT22;14871;52.702;5.230;2022-12-11T10:17:44;5.40;99.90
27413;DHT22;14871;52.702;5.230;2022-12-11T10:20:19;5.30;99.90
27413;DHT22;14871;52.702;5.230;2022-12-11T10:22:49;5.30;99.90
27413;DHT22;14871;52.702;5.230;2022-12-11T10:25:26;5.40;99.90
27413;DHT22;14871;52.702;5.230;2022-12-11T10:27:53;5.40;99.90
27413;DHT22;14871;52.702;5.230;2022-12-11T10:30:28;5.40;99.90
27413;DHT22;14871;52.702;5.230;2022-12-11T10:33:40;5.50;99.90
27413;DHT22;14871;52.702;5.230;2022-12-11T10:35:56;5.50;99.90
27413;DHT22;14871;52.702;5.230;2022-12-11T10:38:35;5.40;99.90
27413;DHT22;14871;52.702;5.230;2022-12-11T10:41:23;5.40;99.90
27413;DHT22;14871;52.702;5.230;2022-12-11T10:43:51;5.20;99.90
27413;DHT22;14871;52.702;5.230;2022-12-11T10:46:23;5.20;99.90
27413;DHT22;14871;52.702;5.230;2022-12-11T10:48:54;5.40;99.90
27413;DHT22;14871;52.702;5.230;2022-12-11T10:51:34;5.20;99.90
27413;DHT22;14871;52.702;5.230;2022-12-11T10:56:49;5.20;99.90
27413;DHT22;14871;52.702;5.230;2022-12-11T10:59:22;5.30;99.90
27413;DHT22;14871;52.702;5.230;2022-12-11T11:01:48;5.20;99.90
27413;DHT22;14871;52.702;5.230;2022-12-11T11:04:19;5.20;99.90
27413;DHT22;14871;52.702;5.230;2022-12-11T11:06:46;5.20;99.90
27413;DHT22;14871;52.702;5.230;2022-12-11T11:09:33;5.30;99.90
27413;DHT22;14871;52.702;5.230;2022-12-11T11:11:59;5.40;99.90
27413;DHT22;14871;52.702;5.230;2022-12-11T11:14:25;5.40;99.90
27413;DHT22;14871;52.702;5.230;2022-12-11T11:16:54;5.50;99.90
27413;DHT22;14871;52.702;5.230;2022-12-11T11:19:34;5.60;99.90
27413;DHT22;14871;52.702;5.230;2022-12-11T11:22:11;5.40;99.90
27413;DHT22;14871;52.702;5.230;2022-12-11T11:24:46;5.50;99.90
27413;DHT22;14871;52.702;5.230;2022-12-11T11:27:40;5.50;99.90
27413;DHT22;14871;52.702;5.230;2022-12-11T11:30:21;5.40;99.90
27413;DHT22;14871;52.702;5.230;2022-12-11T11:32:50;5.30;99.90
27413;DHT22;14871;52.702;5.230;2022-12-11T11:35:20;5.30;99.90
27413;DHT22;14871;52.702;5.230;2022-12-11T11:37:56;5.40;99.90
27413;DHT22;14871;52.702;5.230;2022-12-11T11:40:28;5.50;99.90
27413;DHT22;14871;52.702;5.230;2022-12-11T11:43:11;5.40;99.90
27413;DHT22;14871;52.702;5.230;2022-12-11T11:46:13;5.40;99.90
27413;DHT22;14871;52.702;5.230;2022-12-11T11:51:29;5.80;99.90
27413;DHT22;14871;52.702;5.230;2022-12-11T11:53:59;5.90;99.90
27413;DHT22;14871;52.702;5.230;2022-12-11T11:56:26;6.00;99.90
27413;DHT22;14871;52.702;5.230;2022-12-11T11:59:02;6.00;99.90
27413;DHT22;14871;52.702;5.230;2022-12-11T12:01:31;6.20;99.90
27413;DHT22;14871;52.702;5.230;2022-12-11T12:03:57;6.10;99.90
27413;DHT22;14871;52.702;5.230;2022-12-11T12:09:19;5.90;99.90
27413;DHT22;14871;52.702;5.230;2022-12-11T12:11:59;6.10;99.90
27413;DHT22;14871;52.702;5.230;2022-12-11T12:14:49;6.10;99.90
27413;DHT22;14871;52.702;5.230;2022-12-11T12:17:30;6.00;99.90
27413;DHT22;14871;52.702;5.230;2022-12-11T12:25:27;5.80;99.90
27413;DHT22;14871;52.702;5.230;2022-12-11T12:30:49;5.80;99.90
27413;DHT22;14871;52.702;5.230;2022-12-11T12:33:35;5.80;99.90
27413;DHT22;14871;52.702;5.230;2022-12-11T12:36:05;5.70;99.90
27413;DHT22;14871;52.702;5.230;2022-12-11T12:41:55;5.80;99.90
27413;DHT22;14871;52.702;5.230;2022-12-11T12:44:20;5.60;99.90
27413;DHT22;14871;52.702;5.230;2022-12-11T12:46:59;5.80;99.90
27413;DHT22;14871;52.702;5.230;2022-12-11T12:51:56;5.90;99.90
27413;DHT22;14871;52.702;5.230;2022-12-11T12:54:23;5.60;99.90
27413;DHT22;14871;52.702;5.230;2022-12-11T12:56:51;5.40;99.90
27413;DHT22;14871;52.702;5.230;2022-12-11T12:59:25;5.50;99.90
27413;DHT22;14871;52.702;5.230;2022-12-11T13:02:01;5.50;99.90
27413;DHT22;14871;52.702;5.230;2022-12-11T13:04:40;5.60;99.90
27413;DHT22;14871;52.702;5.230;2022-12-11T13:07:18;5.30;99.90
27413;DHT22;14871;52.702;5.230;2022-12-11T13:09:59;5.40;99.90
27413;DHT22;14871;52.702;5.230;2022-12-11T13:12:45;5.60;99.90
27413;DHT22;14871;52.702;5.230;2022-12-11T13:17:49;5.60;99.90
27413;DHT22;14871;52.702;5.230;2022-12-11T13:20:18;5.40;99.90
27413;DHT22;14871;52.702;5.230;2022-12-11T13:22:55;5.40;99.90
27413;DHT22;14871;52.702;5.230;2022-12-11T13:25:50;5.20;99.90
27413;DHT22;14871;52.702;5.230;2022-12-11T13:33:47;5.20;99.90
27413;DHT22;14871;52.702;5.230;2022-12-11T13:36:31;5.10;99.90
27413;DHT22;14871;52.702;5.230;2022-12-11T13:39:01;5.10;99.90
27413;DHT22;14871;52.702;5.230;2022-12-11T13:41:27;5.10;99.90
27413;DHT22;14871;52.702;5.230;2022-12-11T13:43:53;5.10;99.90
27413;DHT22;14871;52.702;5.230;2022-12-11T13:46:27;5.50;99.90
27413;DHT22;14871;52.702;5.230;2022-12-11T13:48:56;5.40;99.90
27413;DHT22;14871;52.702;5.230;2022-12-11T13:51:27;5.50;99.90
27413;DHT22;14871;52.702;5.230;2022-12-11T13:54:05;5.60;99.90
27413;DHT22;14871;52.702;5.230;2022-12-11T13:56:35;5.60;99.90
27413;DHT22;14871;52.702;5.230;2022-12-11T13:59:01;5.40;99.90
27413;DHT22;14871;52.702;5.230;2022-12-11T14:01:30;5.40;99.90
27413;DHT22;14871;52.702;5.230;2022-12-11T14:04:00;5.40;99.90
27413;DHT22;14871;52.702;5.230;2022-12-11T14:06:27;5.40;99.90
27413;DHT22;14871;52.702;5.230;2022-12-11T14:08:57;5.40;99.90
27413;DHT22;14871;52.702;5.230;2022-12-11T14:11:30;5.20;99.90
27413;DHT22;14871;52.702;5.230;2022-12-11T14:14:01;5.20;99.90
27413;DHT22;14871;52.702;5.230;2022-12-11T14:16:28;4.90;99.90
27413;DHT22;14871;52.702;5.230;2022-12-11T14:19:02;4.90;99.90
27413;DHT22;14871;52.702;5.230;2022-12-11T14:21:29;4.90;99.90
27413;DHT22;14871;52.702;5.230;2022-12-11T14:23:59;5.00;99.90
27413;DHT22;14871;52.702;5.230;2022-12-11T14:28:53;4.90;99.90
27413;DHT22;14871;52.702;5.230;2022-12-11T14:31:41;4.90;99.90
27413;DHT22;14871;52.702;5.230;2022-12-11T14:34:14;4.90;99.90
27413;DHT22;14871;52.702;5.230;2022-12-11T14:36:43;4.80;99.90
27413;DHT22;14871;52.702;5.230;2022-12-11T14:39:15;5.00;99.90
27413;DHT22;14871;52.702;5.230;2022-12-11T14:42:11;5.00;99.90
27413;DHT22;14871;52.702;5.230;2022-12-11T14:45:05;5.10;99.90
27413;DHT22;14871;52.702;5.230;2022-12-11T14:47:39;5.00;99.90
27413;DHT22;14871;52.702;5.230;2022-12-11T14:52:46;5.00;99.90
27413;DHT22;14871;52.702;5.230;2022-12-11T14:55:39;5.00;99.90
27413;DHT22;14871;52.702;5.230;2022-12-11T14:58:39;4.80;99.90
27413;DHT22;14871;52.702;5.230;2022-12-11T15:01:21;4.90;99.90
27413;DHT22;14871;52.702;5.230;2022-12-11T15:03:47;4.90;99.90
27413;DHT22;14871;52.702;5.230;2022-12-11T15:06:31;4.90;99.90
27413;DHT22;14871;52.702;5.230;2022-12-11T15:09:08;4.80;99.90
27413;DHT22;14871;52.702;5.230;2022-12-11T15:11:34;4.60;99.90
27413;DHT22;14871;52.702;5.230;2022-12-11T15:14:03;4.80;99.90
27413;DHT22;14871;52.702;5.230;2022-12-11T15:16:32;4.80;99.90
27413;DHT22;14871;52.702;5.230;2022-12-11T15:19:00;4.70;99.90
27413;DHT22;14871;52.702;5.230;2022-12-11T15:21:34;4.60;99.90
27413;DHT22;14871;52.702;5.230;2022-12-11T15:24:04;4.80;99.90
27413;DHT22;14871;52.702;5.230;2022-12-11T15:26:43;4.70;99.90
27413;DHT22;14871;52.702;5.230;2022-12-11T15:32:19;4.60;99.90
27413;DHT22;14871;52.702;5.230;2022-12-11T15:34:55;4.60;99.90
27413;DHT22;14871;52.702;5.230;2022-12-11T15:39:55;4.60;99.90
27413;DHT22;14871;52.702;5.230;2022-12-11T15:42:29;4.70;99.90
27413;DHT22;14871;52.702;5.230;2022-12-11T15:44:56;4.80;99.90
27413;DHT22;14871;52.702;5.230;2022-12-11T15:47:24;4.70;99.90
27413;DHT22;14871;52.702;5.230;2022-12-11T15:50:09;4.60;99.90
27413;DHT22;14871;52.702;5.230;2022-12-11T15:52:36;4.60;99.90
27413;DHT22;14871;52.702;5.230;2022-12-11T15:55:02;4.80;99.90
27413;DHT22;14871;52.702;5.230;2022-12-11T15:57:28;4.90;99.90
27413;DHT22;14871;52.702;5.230;2022-12-11T15:59:54;5.00;99.90
27413;DHT22;14871;52.702;5.230;2022-12-11T16:02:20;5.00;99.90
27413;DHT22;14871;52.702;5.230;2022-12-11T16:04:48;4.90;99.90
27413;DHT22;14871;52.702;5.230;2022-12-11T16:07:18;4.90;99.90
27413;DHT22;14871;52.702;5.230;2022-12-11T16:09:45;4.90;99.90
27413;DHT22;14871;52.702;5.230;2022-12-11T16:12:11;5.00;99.90
27413;DHT22;14871;52.702;5.230;2022-12-11T16:14:41;5.00;99.90
27413;DHT22;14871;52.702;5.230;2022-12-11T16:17:08;5.10;99.90
27413;DHT22;14871;52.702;5.230;2022-12-11T16:19:35;5.10;99.90
27413;DHT22;14871;52.702;5.230;2022-12-11T16:22:01;5.10;99.90
27413;DHT22;14871;52.702;5.230;2022-12-11T16:24:27;5.10;99.90
27413;DHT22;14871;52.702;5.230;2022-12-11T16:26:52;5.00;99.90
27413;DHT22;14871;52.702;5.230;2022-12-11T16:29:18;5.00;99.90
27413;DHT22;14871;52.702;5.230;2022-12-11T16:31:44;5.00;99.90
27413;DHT22;14871;52.702;5.230;2022-12-11T16:34:09;4.90;99.90
27413;DHT22;14871;52.702;5.230;2022-12-11T16:36:35;4.80;99.90
27413;DHT22;14871;52.702;5.230;2022-12-11T16:39:00;4.80;99.90
27413;DHT22;14871;52.702;5.230;2022-12-11T16:41:26;4.80;99.90
27413;DHT22;14871;52.702;5.230;2022-12-11T16:43:52;4.80;99.90
27413;DHT22;14871;52.702;5.230;2022-12-11T16:46:20;5.00;99.90
27413;DHT22;14871;52.702;5.230;2022-12-11T16:48:46;5.10;99.90
27413;DHT22;14871;52.702;5.230;2022-12-11T16:51:12;4.80;99.90
27413;DHT22;14871;52.702;5.230;2022-12-11T16:53:38;5.00;99.90
27413;DHT22;14871;52.702;5.230;2022-12-11T16:56:04;4.90;99.90
27413;DHT22;14871;52.702;5.230;2022-12-11T16:58:30;4.90;99.90
27413;DHT22;14871;52.702;5.230;2022-12-11T17:00:55;5.00;99.90
27413;DHT22;14871;52.702;5.230;2022-12-11T17:03:30;4.90;99.90
27413;DHT22;14871;52.702;5.230;2022-12-11T17:05:57;5.00;99.90
27413;DHT22;14871;52.702;5.230;2022-12-11T17:08:23;5.00;99.90
27413;DHT22;14871;52.702;5.230;2022-12-11T17:10:50;5.00;99.90
27413;DHT22;14871;52.702;5.230;2022-12-11T17:13:16;4.90;99.90
27413;DHT22;14871;52.702;5.230;2022-12-11T17:15:42;5.00;99.90
27413;DHT22;14871;52.702;5.230;2022-12-11T17:18:09;5.20;99.90
27413;DHT22;14871;52.702;5.230;2022-12-11T17:20:40;5.00;99.90